Time;durP1;ratioP1;P1;durP2;ratioP2;P2;SDS_P1;SDS_P2;PMS_P1;PMS_P2;Temp;Humidity;BMP_temperature;BMP_pressure;BME280_temperature;BME280_humidity;BME280_pressure;Samples;Min_cycle;Max_cycle;Signal;HPM_P1;HPM_P2
2023/05/12 00:02:10;;;;;;;0.00;0.00;;;;;;;11.72;100.00;100456.75;5001124;28;20204;-82
2023/05/12 00:04:36;;;;;;;0.93;0.93;;;;;;;11.71;100.00;100459.78;5003324;28;20189;-83
2023/05/12 00:07:02;;;;;;;0.00;0.00;;;;;;;11.82;100.00;100461.13;5008640;28;20204;-81
2023/05/12 00:09:28;;;;;;;0.17;0.17;;;;;;;11.97;100.00;100457.13;5005513;28;20184;-82
2023/05/12 00:11:53;;;;;;;0.00;0.00;;;;;;;12.01;100.00;100463.59;5008226;28;20204;-83
2023/05/12 00:14:19;;;;;;;1.23;1.17;;;;;;;12.05;100.00;100462.63;5016455;28;20184;-81
2023/05/12 00:16:46;;;;;;;0.00;0.00;;;;;;;12.06;100.00;100466.19;4997606;28;20203;-82
2023/05/12 00:19:11;;;;;;;0.40;0.40;;;;;;;12.15;100.00;100462.34;5006472;28;20596;-82
2023/05/12 00:21:36;;;;;;;0.37;0.37;;;;;;;12.11;100.00;100455.06;5004666;28;20200;-82
2023/05/12 00:24:02;;;;;;;0.20;0.20;;;;;;;12.01;100.00;100474.56;4999771;28;20185;-82
2023/05/12 00:26:27;;;;;;;0.00;0.00;;;;;;;11.91;100.00;100464.72;5009896;28;20694;-82
2023/05/12 00:28:53;;;;;;;0.07;0.07;;;;;;;11.92;100.00;100466.31;4998313;28;20588;-81
2023/05/12 00:31:18;;;;;;;0.00;0.00;;;;;;;11.96;100.00;100464.56;5013611;28;20200;-81
2023/05/12 00:33:43;;;;;;;0.30;0.30;;;;;;;12.08;100.00;100472.13;4997526;28;20238;-82
2023/05/12 00:36:08;;;;;;;3.97;3.77;;;;;;;12.12;100.00;100475.84;5013207;28;20211;-81
2023/05/12 00:38:36;;;;;;;1.87;1.83;;;;;;;12.09;100.00;100477.28;4996936;28;20549;-81
2023/05/12 00:41:01;;;;;;;1.10;1.10;;;;;;;12.02;100.00;100485.19;5013085;28;20177;-80
2023/05/12 00:43:27;;;;;;;2.93;2.73;;;;;;;12.02;100.00;100473.44;5013713;28;20275;-81
2023/05/12 00:45:52;;;;;;;1.73;1.63;;;;;;;12.10;100.00;100483.56;5013038;28;20208;-81
2023/05/12 00:48:18;;;;;;;2.70;2.57;;;;;;;12.10;100.00;100476.16;5028190;28;20666;-82
2023/05/12 00:50:43;;;;;;;0.00;0.00;;;;;;;12.13;100.00;100481.00;5028270;28;20223;-81
2023/05/12 00:53:09;;;;;;;0.00;0.00;;;;;;;12.16;100.00;100474.09;5011773;28;20230;-83
2023/05/12 00:55:36;;;;;;;0.00;0.00;;;;;;;12.20;100.00;100475.06;5004717;28;20212;-82
2023/05/12 00:58:01;;;;;;;0.00;0.00;;;;;;;12.28;100.00;100471.50;5008359;28;20206;-81
2023/05/12 01:00:27;;;;;;;0.00;0.00;;;;;;;12.26;100.00;100471.00;5012463;28;20204;-81
2023/05/12 01:02:52;;;;;;;0.00;0.00;;;;;;;12.39;100.00;100472.78;4993003;28;20201;-82
2023/05/12 01:05:17;;;;;;;0.00;0.00;;;;;;;12.47;100.00;100468.44;5001277;28;20605;-82
2023/05/12 01:07:45;;;;;;;0.00;0.00;;;;;;;12.52;100.00;100476.50;5013060;28;20659;-82
2023/05/12 01:10:20;;;;;;;0.00;0.00;;;;;;;11.93;100.00;100489.03;5013123;28;20204;-82
2023/05/12 01:12:47;;;;;;;0.00;0.00;;;;;;;11.72;100.00;100480.59;5011686;28;20226;-83
2023/05/12 01:15:12;;;;;;;0.00;0.00;;;;;;;11.67;100.00;100477.97;5013419;28;20654;-81
2023/05/12 01:17:42;;;;;;;0.00;0.00;;;;;;;11.89;100.00;100478.72;5029655;28;20191;-81
2023/05/12 01:20:10;;;;;;;1.17;1.17;;;;;;;12.01;100.00;100469.88;5029156;28;20922;-83
2023/05/12 01:22:36;;;;;;;0.30;0.30;;;;;;;11.99;100.00;100477.59;5028871;28;20210;-80
2023/05/12 01:25:06;;;;;;;0.20;0.20;;;;;;;11.85;100.00;100483.19;5012513;28;20180;-82
2023/05/12 01:27:33;;;;;;;2.40;2.30;;;;;;;11.77;100.00;100483.97;5013723;28;20176;-82
2023/05/12 01:30:00;;;;;;;0.00;0.00;;;;;;;11.70;100.00;100483.63;5013124;28;20658;-81
2023/05/12 01:32:26;;;;;;;0.00;0.00;;;;;;;11.76;100.00;100493.31;5027557;28;20231;-81
2023/05/12 01:34:51;;;;;;;0.00;0.00;;;;;;;11.67;100.00;100494.41;5014710;28;20200;-81
2023/05/12 01:37:17;;;;;;;0.00;0.00;;;;;;;11.50;100.00;100497.88;4998984;28;20189;-81
2023/05/12 01:39:43;;;;;;;0.00;0.00;;;;;;;11.60;100.00;100495.69;5015828;28;20212;-82
2023/05/12 01:42:08;;;;;;;0.00;0.00;;;;;;;11.81;100.00;100498.66;5015769;28;20682;-82
2023/05/12 01:44:34;;;;;;;15.60;9.90;;;;;;;11.87;100.00;100497.41;5017217;28;20177;-82
2023/05/12 01:47:00;;;;;;;0.10;0.10;;;;;;;11.93;100.00;100498.03;5016501;28;20176;-83
2023/05/12 01:49:25;;;;;;;4.70;1.67;;;;;;;11.86;100.00;100504.00;5019775;28;20176;-83
2023/05/12 01:51:51;;;;;;;0.67;0.67;;;;;;;11.79;100.00;100491.91;5010552;28;20313;-81
2023/05/12 01:54:16;;;;;;;0.00;0.00;;;;;;;11.82;100.00;100502.19;5026477;28;20214;-83
2023/05/12 01:56:41;;;;;;;0.00;0.00;;;;;;;11.87;100.00;100494.66;5018882;28;20674;-83
2023/05/12 01:59:07;;;;;;;1.70;1.70;;;;;;;11.93;100.00;100494.50;5017857;28;20685;-83
2023/05/12 02:01:32;;;;;;;0.00;0.00;;;;;;;11.94;100.00;100491.44;5017515;28;20203;-83
2023/05/12 02:03:58;;;;;;;0.00;0.00;;;;;;;11.95;100.00;100486.78;5019854;28;20180;-83
2023/05/12 02:06:25;;;;;;;0.10;0.10;;;;;;;11.94;100.00;100504.31;5012686;28;20188;-83
2023/05/12 02:08:50;;;;;;;0.00;0.00;;;;;;;11.74;100.00;100498.31;5014419;28;20552;-83
2023/05/12 02:11:16;;;;;;;1.23;1.13;;;;;;;11.90;100.00;100498.69;5017359;28;20204;-82
2023/05/12 02:13:45;;;;;;;1.30;1.30;;;;;;;11.91;100.00;100500.31;5014287;28;20204;-81
2023/05/12 02:16:10;;;;;;;0.00;0.00;;;;;;;11.97;100.00;100503.69;5004681;28;20618;-81
2023/05/12 02:18:36;;;;;;;0.00;0.00;;;;;;;11.88;100.00;100499.00;5001883;28;20208;-81
2023/05/12 02:21:01;;;;;;;0.00;0.00;;;;;;;11.90;100.00;100506.91;4993883;28;20228;-81
2023/05/12 02:23:26;;;;;;;0.00;0.00;;;;;;;12.03;100.00;100505.16;5001422;28;20187;-81
2023/05/12 02:25:52;;;;;;;0.20;0.20;;;;;;;12.07;100.00;100506.13;5013433;28;20766;-82
2023/05/12 02:28:17;;;;;;;0.00;0.00;;;;;;;12.08;100.00;100502.25;5014369;28;20184;-82
2023/05/12 02:30:47;;;;;;;0.00;0.00;;;;;;;12.08;100.00;100511.28;5015594;28;20187;-83
2023/05/12 02:33:13;;;;;;;0.00;0.00;;;;;;;12.16;100.00;100502.28;5016995;28;20195;-83
2023/05/12 02:35:39;;;;;;;0.00;0.00;;;;;;;12.06;100.00;100501.78;5016349;28;20556;-83
2023/05/12 02:38:04;;;;;;;0.00;0.00;;;;;;;11.57;100.00;100492.75;5002887;28;20177;-83
2023/05/12 02:40:29;;;;;;;0.00;0.00;;;;;;;11.72;100.00;100508.75;4997811;28;20201;-83
2023/05/12 02:42:55;;;;;;;0.60;0.60;;;;;;;11.79;100.00;100503.66;5016018;28;20644;-81
2023/05/12 02:45:20;;;;;;;0.00;0.00;;;;;;;11.73;100.00;100493.16;5014052;28;20185;-83
2023/05/12 02:47:46;;;;;;;0.00;0.00;;;;;;;11.54;100.00;100496.94;5016201;28;20311;-83
2023/05/12 02:50:11;;;;;;;0.00;0.00;;;;;;;11.40;100.00;100507.16;5001580;28;20555;-82
2023/05/12 02:52:36;;;;;;;0.00;0.00;;;;;;;11.47;100.00;100504.00;5012491;28;20212;-83
2023/05/12 02:55:02;;;;;;;0.00;0.00;;;;;;;11.50;100.00;100508.84;5002129;28;20215;-83
2023/05/12 02:57:32;;;;;;;0.20;0.20;;;;;;;11.25;100.00;100493.91;5007494;28;20629;-82
2023/05/12 03:00:03;;;;;;;0.00;0.00;;;;;;;11.22;100.00;100500.00;5011967;28;20200;-82
2023/05/12 03:02:28;;;;;;;0.10;0.10;;;;;;;11.36;100.00;100513.59;5012283;28;20235;-82
2023/05/12 03:04:54;;;;;;;0.00;0.00;;;;;;;11.15;100.00;100508.69;5013420;28;20204;-82
2023/05/12 03:07:19;;;;;;;0.00;0.00;;;;;;;11.09;100.00;100501.72;5013129;28;20191;-82
2023/05/12 03:09:44;;;;;;;0.00;0.00;;;;;;;11.31;100.00;100507.16;5013620;28;20184;-81
2023/05/12 03:12:10;;;;;;;0.00;0.00;;;;;;;11.60;100.00;100500.34;5011823;28;20200;-82
2023/05/12 03:14:35;;;;;;;0.00;0.00;;;;;;;11.31;100.00;100498.94;5013245;28;20177;-82
2023/05/12 03:17:00;;;;;;;0.00;0.00;;;;;;;11.17;100.00;100506.44;5014901;28;20184;-82
2023/05/12 03:19:29;;;;;;;0.10;0.10;;;;;;;11.33;100.00;100507.63;5015190;28;20292;-83
2023/05/12 03:21:54;;;;;;;0.00;0.00;;;;;;;11.49;100.00;100505.28;5015388;28;20205;-83
2023/05/12 03:24:20;;;;;;;0.00;0.00;;;;;;;11.51;100.00;100511.25;4998784;28;20184;-83
2023/05/12 03:26:45;;;;;;;0.23;0.23;;;;;;;11.56;100.00;100505.63;5002780;28;20239;-83
2023/05/12 03:29:10;;;;;;;0.27;0.27;;;;;;;11.58;100.00;100508.06;5009010;28;20184;-80
2023/05/12 03:31:36;;;;;;;0.73;0.73;;;;;;;11.58;100.00;100519.81;5010690;28;20243;-80
2023/05/12 03:34:01;;;;;;;0.00;0.00;;;;;;;11.41;100.00;100507.97;4998597;28;20181;-81
2023/05/12 03:36:26;;;;;;;1.67;1.63;;;;;;;11.45;100.00;100500.78;5007803;28;20603;-80
2023/05/12 03:38:52;;;;;;;0.33;0.33;;;;;;;11.59;100.00;100490.53;5010624;28;20690;-81
2023/05/12 03:41:17;;;;;;;0.47;0.47;;;;;;;11.60;100.00;100516.75;5010455;28;20748;-81
2023/05/12 03:43:42;;;;;;;0.00;0.00;;;;;;;11.59;100.00;100526.91;5002254;28;20192;-81
2023/05/12 03:46:08;;;;;;;0.00;0.00;;;;;;;11.51;100.00;100527.66;5011329;28;20182;-81
2023/05/12 03:48:33;;;;;;;0.00;0.00;;;;;;;11.40;100.00;100529.06;5010500;28;20184;-80
2023/05/12 03:50:59;;;;;;;0.00;0.00;;;;;;;11.40;100.00;100512.66;5010432;28;20185;-81
2023/05/12 03:53:24;;;;;;;0.00;0.00;;;;;;;11.37;100.00;100512.47;5011867;28;20574;-81
2023/05/12 03:55:50;;;;;;;0.10;0.10;;;;;;;11.51;100.00;100530.41;5011147;28;20315;-82
2023/05/12 03:58:15;;;;;;;0.07;0.07;;;;;;;11.58;100.00;100540.91;5026854;28;20295;-81
2023/05/12 04:00:40;;;;;;;0.83;0.83;;;;;;;11.60;100.00;100541.41;5011339;28;20204;-81
2023/05/12 04:03:06;;;;;;;0.00;0.00;;;;;;;11.59;100.00;100540.59;5013623;28;20193;-81
2023/05/12 04:05:31;;;;;;;0.00;0.00;;;;;;;11.68;100.00;100542.53;5001914;28;20633;-82
2023/05/12 04:07:56;;;;;;;0.33;0.33;;;;;;;11.75;100.00;100535.50;5006648;28;20184;-82
2023/05/12 04:10:22;;;;;;;0.00;0.00;;;;;;;11.81;100.00;100541.66;5011699;28;20263;-82
2023/05/12 04:12:47;;;;;;;0.00;0.00;;;;;;;11.86;100.00;100536.03;4995318;28;20215;-81
2023/05/12 04:15:13;;;;;;;0.00;0.00;;;;;;;11.82;100.00;100541.34;5012825;28;20643;-81
2023/05/12 04:17:39;;;;;;;0.00;0.00;;;;;;;11.82;100.00;100549.53;5012664;28;20184;-81
2023/05/12 04:20:05;;;;;;;0.00;0.00;;;;;;;11.80;100.00;100542.78;5012878;28;20734;-83
2023/05/12 04:22:30;;;;;;;0.00;0.00;;;;;;;11.62;100.00;100536.41;5011952;28;20196;-82
2023/05/12 04:24:56;;;;;;;0.00;0.00;;;;;;;11.47;100.00;100543.09;5011981;28;20173;-82
2023/05/12 04:27:21;;;;;;;0.00;0.00;;;;;;;11.46;100.00;100548.91;5011491;28;20274;-82
2023/05/12 04:29:46;;;;;;;0.00;0.00;;;;;;;11.66;100.00;100562.00;5011883;28;20177;-81
2023/05/12 04:32:12;;;;;;;0.00;0.00;;;;;;;11.78;100.00;100570.44;5011110;28;20282;-81
2023/05/12 04:34:37;;;;;;;0.00;0.00;;;;;;;11.84;100.00;100569.19;5026253;28;20194;-81
2023/05/12 04:37:02;;;;;;;0.00;0.00;;;;;;;11.40;100.00;100561.06;5009671;28;20713;-81
2023/05/12 04:39:28;;;;;;;0.30;0.30;;;;;;;11.33;100.00;100562.34;5025285;28;20250;-81
2023/05/12 04:41:53;;;;;;;0.00;0.00;;;;;;;11.52;100.00;100561.31;4994361;28;20270;-81
2023/05/12 04:44:18;;;;;;;0.00;0.00;;;;;;;11.71;100.00;100564.59;4995274;28;20181;-81
2023/05/12 04:46:43;;;;;;;0.00;0.00;;;;;;;11.82;100.00;100574.19;4991349;28;20224;-81
2023/05/12 04:49:09;;;;;;;0.00;0.00;;;;;;;11.84;100.00;100576.59;4998377;28;20184;-81
2023/05/12 04:51:40;;;;;;;0.00;0.00;;;;;;;11.85;100.00;100573.53;5010086;28;20205;-82
2023/05/12 04:54:08;;;;;;;11.03;2.80;;;;;;;11.59;100.00;100569.88;5013705;28;20180;-83
2023/05/12 04:56:33;;;;;;;0.00;0.00;;;;;;;11.66;100.00;100572.97;5012802;28;20192;-84
2023/05/12 04:58:59;;;;;;;0.00;0.00;;;;;;;11.79;100.00;100577.56;5014678;28;20208;-82
2023/05/12 05:01:24;;;;;;;0.00;0.00;;;;;;;11.95;100.00;100582.59;5014719;28;20243;-81
2023/05/12 05:03:50;;;;;;;0.00;0.00;;;;;;;12.02;100.00;100582.97;5009953;28;20805;-82
2023/05/12 05:06:15;;;;;;;0.00;0.00;;;;;;;12.02;100.00;100581.03;5011318;28;20183;-81
2023/05/12 05:08:41;;;;;;;0.37;0.37;;;;;;;12.10;100.00;100588.44;5011642;28;20188;-82
2023/05/12 05:11:06;;;;;;;0.00;0.00;;;;;;;12.18;100.00;100581.41;5014865;28;20177;-81
2023/05/12 05:13:31;;;;;;;0.00;0.00;;;;;;;11.99;100.00;100591.78;5019229;28;20681;-83
2023/05/12 05:15:56;;;;;;;0.00;0.00;;;;;;;11.84;100.00;100587.56;5021280;28;20184;-83
2023/05/12 05:18:22;;;;;;;0.00;0.00;;;;;;;11.77;100.00;100587.19;5019829;28;20186;-83
2023/05/12 05:20:47;;;;;;;0.00;0.00;;;;;;;11.75;100.00;100590.25;5019891;28;20220;-82
2023/05/12 05:23:12;;;;;;;0.00;0.00;;;;;;;11.92;100.00;100581.31;5019380;28;20203;-84
2023/05/12 05:25:38;;;;;;;0.00;0.00;;;;;;;12.15;100.00;100584.75;5019598;28;20562;-83
2023/05/12 05:28:03;;;;;;;0.00;0.00;;;;;;;12.09;100.00;100586.84;5018429;28;20191;-82
2023/05/12 05:30:29;;;;;;;0.00;0.00;;;;;;;12.17;100.00;100585.25;5020192;28;20589;-83
2023/05/12 05:32:54;;;;;;;0.00;0.00;;;;;;;12.16;100.00;100580.91;5017925;28;20655;-83
2023/05/12 05:35:19;;;;;;;0.00;0.00;;;;;;;12.07;100.00;100591.03;5017030;28;20186;-83
2023/05/12 05:37:46;;;;;;;0.00;0.00;;;;;;;12.29;100.00;100598.31;5019806;28;20185;-83
2023/05/12 05:40:11;;;;;;;0.00;0.00;;;;;;;12.37;100.00;100595.63;5018054;28;20201;-82
2023/05/12 05:42:36;;;;;;;0.00;0.00;;;;;;;12.36;100.00;100598.66;5014946;28;20278;-82
2023/05/12 05:45:02;;;;;;;0.00;0.00;;;;;;;12.40;100.00;100594.97;4999971;28;20267;-82
2023/05/12 05:47:27;;;;;;;0.00;0.00;;;;;;;12.61;100.00;100595.16;5013638;28;20203;-82
2023/05/12 05:49:53;;;;;;;0.00;0.00;;;;;;;12.76;100.00;100607.59;5001753;28;20184;-82
2023/05/12 05:52:18;;;;;;;0.00;0.00;;;;;;;12.54;100.00;100604.97;5010066;28;20609;-81
2023/05/12 05:54:43;;;;;;;0.43;0.43;;;;;;;12.42;100.00;100600.94;5001385;28;20199;-82
2023/05/12 05:57:09;;;;;;;0.00;0.00;;;;;;;12.40;100.00;100608.66;4993304;28;20192;-81
2023/05/12 05:59:34;;;;;;;0.00;0.00;;;;;;;12.60;100.00;100606.47;5011916;28;20211;-82
2023/05/12 06:02:00;;;;;;;0.00;0.00;;;;;;;12.35;100.00;100614.31;5015276;28;20905;-82
2023/05/12 06:04:25;;;;;;;0.00;0.00;;;;;;;12.23;100.00;100625.06;5015167;28;20618;-82
2023/05/12 06:06:50;;;;;;;0.10;0.10;;;;;;;12.26;100.00;100608.00;5013092;28;20193;-82
2023/05/12 06:09:15;;;;;;;2.00;0.37;;;;;;;12.23;100.00;100616.84;5013588;28;20188;-82
2023/05/12 06:11:41;;;;;;;0.00;0.00;;;;;;;12.23;100.00;100616.84;5012274;28;20216;-81
2023/05/12 06:14:06;;;;;;;0.07;0.07;;;;;;;12.34;100.00;100611.88;5013539;28;20264;-81
2023/05/12 06:16:31;;;;;;;0.00;0.00;;;;;;;12.29;100.00;100614.75;5012805;28;20185;-80
2023/05/12 06:18:57;;;;;;;0.00;0.00;;;;;;;12.35;100.00;100613.50;5013691;28;20666;-80
2023/05/12 06:21:22;;;;;;;0.00;0.00;;;;;;;12.33;100.00;100623.97;5012088;28;20211;-81
2023/05/12 06:23:47;;;;;;;0.00;0.00;;;;;;;12.56;100.00;100627.38;5012559;28;20662;-81
2023/05/12 06:26:13;;;;;;;0.00;0.00;;;;;;;12.59;100.00;100629.50;5004424;28;20236;-81
2023/05/12 06:28:38;;;;;;;0.37;0.37;;;;;;;12.35;100.00;100618.97;5002795;28;20642;-81
2023/05/12 06:31:07;;;;;;;0.00;0.00;;;;;;;12.43;100.00;100640.09;5011933;28;20605;-81
2023/05/12 06:33:32;;;;;;;0.00;0.00;;;;;;;12.54;100.00;100633.19;5011868;28;20187;-80
2023/05/12 06:35:58;;;;;;;3.40;0.20;;;;;;;12.38;100.00;100637.50;4998318;28;20196;-81
2023/05/12 06:38:23;;;;;;;1.67;1.60;;;;;;;12.40;100.00;100627.03;5013040;28;20176;-81
2023/05/12 06:40:48;;;;;;;0.10;0.10;;;;;;;12.40;100.00;100627.03;5011287;28;20362;-81
2023/05/12 06:43:13;;;;;;;0.00;0.00;;;;;;;12.47;100.00;100632.88;5012976;28;20189;-81
2023/05/12 06:45:39;;;;;;;0.00;0.00;;;;;;;12.44;100.00;100625.28;5012380;28;20655;-80
2023/05/12 06:48:04;;;;;;;0.30;0.30;;;;;;;12.53;100.00;100634.31;5011774;28;20607;-81
2023/05/12 06:50:30;;;;;;;1.77;1.77;;;;;;;12.53;100.00;100628.84;5012878;28;20191;-81
2023/05/12 06:52:56;;;;;;;0.73;0.73;;;;;;;12.58;100.00;100631.41;5011618;28;20204;-81
2023/05/12 06:55:21;;;;;;;0.73;0.73;;;;;;;12.67;100.00;100636.94;5012352;28;20226;-81
2023/05/12 06:57:47;;;;;;;0.00;0.00;;;;;;;12.72;100.00;100647.72;4998214;28;20564;-81
2023/05/12 07:00:13;;;;;;;0.33;0.33;;;;;;;12.63;100.00;100652.41;5004863;28;20213;-81
2023/05/12 07:02:38;;;;;;;2.97;2.83;;;;;;;12.58;100.00;100644.31;5000197;28;20208;-81
2023/05/12 07:05:04;;;;;;;1.60;0.97;;;;;;;12.58;100.00;100641.56;4992011;28;20613;-80
2023/05/12 07:07:29;;;;;;;5.90;5.43;;;;;;;12.47;100.00;100641.91;5001681;28;20663;-81
2023/05/12 07:09:55;;;;;;;1.20;1.13;;;;;;;12.57;100.00;100639.97;5008120;28;20181;-81
2023/05/12 07:12:21;;;;;;;2.47;2.30;;;;;;;12.49;100.00;100650.59;4999957;28;20205;-81
2023/05/12 07:14:46;;;;;;;0.00;0.00;;;;;;;12.56;100.00;100647.38;5016674;28;20238;-81
2023/05/12 07:17:12;;;;;;;0.63;0.63;;;;;;;12.62;100.00;100634.34;5010916;28;20184;-81
2023/05/12 07:19:39;;;;;;;0.00;0.00;;;;;;;12.74;100.00;100640.00;5012118;28;20901;-81
2023/05/12 07:22:04;;;;;;;0.20;0.20;;;;;;;12.79;100.00;100642.59;5011805;28;20702;-81
2023/05/12 07:24:29;;;;;;;2.67;2.47;;;;;;;12.77;100.00;100642.09;5026860;28;20184;-83
2023/05/12 07:26:55;;;;;;;0.50;0.50;;;;;;;12.84;100.00;100638.88;5006482;28;20259;-82
2023/05/12 07:29:21;;;;;;;1.70;1.60;;;;;;;12.84;100.00;100650.66;4991196;28;20188;-81
2023/05/12 07:31:46;;;;;;;3.93;3.63;;;;;;;12.87;100.00;100651.94;5007234;28;20652;-83
2023/05/12 07:34:12;;;;;;;1.60;1.50;;;;;;;12.97;100.00;100652.44;4992764;28;20188;-83
2023/05/12 07:36:37;;;;;;;6.10;5.57;;;;;;;13.02;100.00;100655.03;4991424;28;20228;-81
2023/05/12 07:39:02;;;;;;;9.27;7.40;;;;;;;13.00;100.00;100646.28;5007273;28;20725;-82
2023/05/12 07:41:28;;;;;;;3.53;3.17;;;;;;;13.10;100.00;100661.63;5010932;28;20219;-82
2023/05/12 07:43:53;;;;;;;2.77;2.67;;;;;;;13.29;100.00;100656.66;4991968;28;20181;-83
2023/05/12 07:46:18;;;;;;;6.87;6.37;;;;;;;13.38;100.00;100651.97;4999741;28;20279;-85
2023/05/12 07:48:44;;;;;;;0.63;0.63;;;;;;;13.45;100.00;100656.13;5008106;28;20663;-87
2023/05/12 07:51:10;;;;;;;6.57;6.07;;;;;;;13.34;100.00;100653.75;4999543;28;20211;-80
2023/05/12 07:53:35;;;;;;;5.20;3.90;;;;;;;13.50;100.00;100654.06;5013178;28;20188;-80
2023/05/12 07:56:01;;;;;;;5.63;5.07;;;;;;;13.54;100.00;100645.97;5010423;28;20485;-82
2023/05/12 07:58:26;;;;;;;1.70;1.53;;;;;;;13.62;100.00;100647.91;5009216;28;20295;-80
2023/05/12 08:00:53;;;;;;;3.10;2.93;;;;;;;13.64;100.00;100662.09;4996112;28;20296;-80
2023/05/12 08:03:18;;;;;;;6.30;5.67;;;;;;;13.67;100.00;100656.75;5013432;28;20198;-82
2023/05/12 08:05:44;;;;;;;5.37;4.97;;;;;;;13.81;100.00;100653.00;5015630;28;20255;-83
2023/05/12 08:08:15;;;;;;;6.23;5.80;;;;;;;13.86;100.00;100647.31;5018487;28;20279;-83
2023/05/12 08:10:43;;;;;;;0.10;0.10;;;;;;;13.99;100.00;100647.13;5017456;28;20180;-83
2023/05/12 08:13:09;;;;;;;4.03;3.73;;;;;;;14.14;100.00;100655.94;5016748;28;20588;-84
2023/05/12 08:15:34;;;;;;;0.93;0.93;;;;;;;14.34;100.00;100652.47;5013608;28;20180;-86
2023/05/12 08:18:00;;;;;;;2.63;2.43;;;;;;;14.46;100.00;100660.00;5000603;28;20682;-86
2023/05/12 08:20:25;;;;;;;5.60;5.20;;;;;;;14.45;100.00;100659.22;5008083;28;20695;-86
2023/05/12 08:22:50;;;;;;;0.17;0.17;;;;;;;14.63;100.00;100659.13;5009114;28;20215;-81
2023/05/12 08:25:16;;;;;;;0.00;0.00;;;;;;;14.69;100.00;100663.28;5013296;28;20739;-81
2023/05/12 08:27:41;;;;;;;2.10;1.93;;;;;;;14.93;100.00;100662.66;4996451;28;20187;-81
2023/05/12 08:30:08;;;;;;;0.50;0.40;;;;;;;14.95;100.00;100666.66;4997580;28;20181;-82
2023/05/12 08:32:33;;;;;;;15.63;2.33;;;;;;;14.95;100.00;100660.38;5009794;28;20694;-81
2023/05/12 08:35:00;;;;;;;0.83;0.83;;;;;;;15.06;100.00;100656.06;5028603;28;20187;-82
2023/05/12 08:37:26;;;;;;;0.93;0.83;;;;;;;15.16;100.00;100658.41;5032128;28;20203;-80
2023/05/12 08:39:51;;;;;;;0.67;0.67;;;;;;;15.27;100.00;100664.31;5029898;28;20204;-82
2023/05/12 08:42:28;;;;;;;0.37;0.37;;;;;;;15.36;100.00;100662.28;5005049;28;20299;-83
2023/05/12 08:44:54;;;;;;;3.13;2.93;;;;;;;15.32;100.00;100662.13;5014437;28;20184;-83
2023/05/12 08:47:21;;;;;;;0.77;0.77;;;;;;;15.15;100.00;100659.53;5009782;28;20184;-82
2023/05/12 08:49:57;;;;;;;2.33;2.23;;;;;;;15.30;100.00;100658.91;5010229;28;20183;-84
2023/05/12 08:52:24;;;;;;;1.37;1.27;;;;;;;15.34;100.00;100659.88;5003608;28;20207;-84
2023/05/12 08:54:49;;;;;;;0.60;0.60;;;;;;;15.46;100.00;100667.34;5021115;28;20187;-84
2023/05/12 08:57:15;;;;;;;1.13;1.13;;;;;;;15.67;100.00;100661.84;5004965;28;20193;-85
2023/05/12 08:59:43;;;;;;;0.90;0.77;;;;;;;15.71;100.00;100662.75;5020685;28;20339;-82
2023/05/12 09:02:10;;;;;;;0.37;0.37;;;;;;;15.83;100.00;100665.56;5014385;28;20215;-86
2023/05/12 09:04:37;;;;;;;2.90;2.67;;;;;;;16.04;100.00;100660.75;5000390;28;20185;-88
2023/05/12 09:07:05;;;;;;;7.93;2.60;;;;;;;15.99;98.92;100669.25;5009847;28;20173;-82
2023/05/12 09:09:33;;;;;;;2.13;2.03;;;;;;;16.09;96.55;100657.00;5008455;28;20187;-83
2023/05/12 09:12:00;;;;;;;2.03;1.93;;;;;;;16.01;97.93;100666.94;5013920;28;20222;-80
2023/05/12 09:14:28;;;;;;;1.90;1.80;;;;;;;16.00;99.23;100670.84;5008811;28;20180;-82
2023/05/12 09:17:01;;;;;;;0.60;0.60;;;;;;;16.22;98.90;100669.63;5014559;28;20177;-83
2023/05/12 09:19:27;;;;;;;0.33;0.33;;;;;;;16.43;100.00;100661.25;5010381;28;20216;-87
2023/05/12 09:21:52;;;;;;;2.73;2.53;;;;;;;16.51;96.71;100657.56;5017800;28;20205;-82
2023/05/12 09:24:17;;;;;;;2.17;2.07;;;;;;;16.56;96.21;100660.09;5017716;28;20185;-82
2023/05/12 09:26:46;;;;;;;2.03;1.83;;;;;;;16.51;94.31;100662.28;5017604;28;20721;-82
2023/05/12 09:29:12;;;;;;;1.30;1.20;;;;;;;16.62;94.27;100666.97;5017911;28;20200;-82
2023/05/12 09:31:37;;;;;;;2.87;2.67;;;;;;;16.84;95.34;100675.94;5016607;28;20841;-82
2023/05/12 09:34:09;;;;;;;2.50;2.30;;;;;;;16.85;91.67;100672.84;5011453;28;20474;-82
2023/05/12 09:36:35;;;;;;;4.20;3.90;;;;;;;16.81;92.66;100677.44;5006120;28;20314;-81
2023/05/12 09:39:05;;;;;;;1.43;1.40;;;;;;;16.97;93.50;100674.75;5015418;28;20220;-82
2023/05/12 09:41:38;;;;;;;0.70;0.70;;;;;;;17.09;91.90;100671.19;5016052;28;20286;-82
2023/05/12 09:44:04;;;;;;;0.77;0.77;;;;;;;17.22;89.07;100669.97;5016097;28;20651;-80
2023/05/12 09:46:29;;;;;;;5.20;4.77;;;;;;;17.13;85.68;100661.03;5016158;28;20187;-83
2023/05/12 09:48:56;;;;;;;1.57;1.57;;;;;;;17.20;85.22;100672.25;5016563;28;20185;-81
2023/05/12 09:51:22;;;;;;;0.43;0.43;;;;;;;17.25;83.85;100669.28;5015469;28;20580;-81
2023/05/12 09:53:48;;;;;;;5.40;1.80;;;;;;;17.32;82.37;100663.13;5015182;28;20685;-81
2023/05/12 09:56:15;;;;;;;2.07;1.97;;;;;;;17.38;81.98;100667.28;5013664;28;20192;-82
2023/05/12 09:58:47;;;;;;;1.27;1.17;;;;;;;17.66;83.07;100667.25;5016127;28;20185;-82
2023/05/12 10:01:15;;;;;;;2.90;2.70;;;;;;;17.81;80.57;100667.31;5017372;28;20279;-82
2023/05/12 10:03:41;;;;;;;0.83;0.83;;;;;;;17.71;78.76;100667.03;5018414;28;20185;-83
2023/05/12 10:06:11;;;;;;;0.47;0.47;;;;;;;18.01;81.58;100684.00;5011169;28;20196;-84
2023/05/12 10:08:44;;;;;;;1.90;1.20;;;;;;;18.03;80.36;100668.66;4994264;28;20196;-83
2023/05/12 10:11:09;;;;;;;1.43;0.83;;;;;;;18.28;83.99;100680.34;5010040;28;20204;-84
2023/05/12 10:13:36;;;;;;;1.90;1.80;;;;;;;18.42;83.20;100668.84;5014310;28;20562;-82
2023/05/12 10:16:03;;;;;;;0.90;0.90;;;;;;;18.49;77.51;100646.84;5029047;28;20359;-82
2023/05/12 10:18:30;;;;;;;0.90;0.50;;;;;;;18.18;72.48;100636.63;5014607;28;20196;-83
2023/05/12 10:20:56;;;;;;;1.40;1.23;;;;;;;18.47;75.27;100645.59;5014565;28;20232;-83
2023/05/12 10:23:22;;;;;;;3.07;1.43;;;;;;;18.39;73.98;100651.00;5014393;28;20187;-81
2023/05/12 10:25:48;;;;;;;1.00;1.00;;;;;;;18.49;71.34;100632.22;5012643;28;20196;-83
2023/05/12 10:28:14;;;;;;;2.63;2.03;;;;;;;18.51;66.42;100618.81;5014162;28;20200;-82
2023/05/12 10:30:40;;;;;;;1.53;1.43;;;;;;;18.55;64.04;100625.25;4997501;28;20659;-82
2023/05/12 10:33:08;;;;;;;1.00;1.00;;;;;;;18.57;63.14;100615.44;5012774;28;20548;-83
2023/05/12 10:35:35;;;;;;;2.00;1.63;;;;;;;18.57;62.24;100618.19;5028743;28;20223;-83
2023/05/12 10:38:05;;;;;;;1.07;1.07;;;;;;;18.52;61.76;100623.22;5029238;28;20187;-83
2023/05/12 10:40:30;;;;;;;0.77;0.70;;;;;;;18.68;64.14;100635.06;5014102;28;20663;-83
2023/05/12 10:42:59;;;;;;;1.70;1.60;;;;;;;18.96;63.00;100643.19;5012656;28;20211;-84
2023/05/12 10:45:25;;;;;;;0.80;0.80;;;;;;;18.89;60.08;100620.88;5011852;28;20550;-83
2023/05/12 10:47:50;;;;;;;0.67;0.67;;;;;;;18.98;61.37;100633.38;5011536;28;20180;-84
2023/05/12 10:50:25;;;;;;;1.27;1.17;;;;;;;18.82;60.12;100629.06;4997349;28;20177;-83
2023/05/12 10:52:55;;;;;;;1.03;1.03;;;;;;;18.87;60.70;100634.28;5004148;28;20254;-82
2023/05/12 10:55:35;;;;;;;2.17;1.97;;;;;;;18.97;61.06;100629.00;5013186;28;20181;-84
2023/05/12 10:58:11;;;;;;;2.77;2.17;;;;;;;18.96;60.10;100632.13;5000131;28;20238;-82
2023/05/12 11:00:50;;;;;;;0.50;0.50;;;;;;;19.14;60.30;100626.94;5003792;28;20287;-83
2023/05/12 11:03:17;;;;;;;1.87;1.77;;;;;;;19.12;58.88;100610.69;5004756;28;20219;-82
2023/05/12 11:05:43;;;;;;;1.90;1.77;;;;;;;19.34;61.41;100636.84;5003601;28;20199;-83
2023/05/12 11:08:08;;;;;;;3.17;2.87;;;;;;;19.35;59.87;100621.81;4994550;28;20192;-82
2023/05/12 11:10:34;;;;;;;2.23;1.97;;;;;;;19.28;59.30;100625.25;5011197;28;20229;-82
2023/05/12 11:13:01;;;;;;;2.67;2.33;;;;;;;19.22;59.40;100626.72;5012895;28;20204;-83
2023/05/12 11:15:27;;;;;;;0.90;0.90;;;;;;;19.26;59.12;100622.06;5003903;28;20710;-83